SPGM

Details ICAO SPGM
Name Tingo Maria
Region Peru
Timezone America/Lima (UTC-5.0)
Plans Departing 1
Arriving 0
Stats Elevation 2,008 ft / 612 m (AMSL)
Location -9.289722° -76.004723°
Runways 1
Magnetic Variation 3.452° W
Sunrise 2018-05-25 11:13:10 UTC / 2018-05-25 06:13:10 Local
Sunset 2018-05-25 22:51:39 UTC / 2018-05-25 17:51:39 Local
Advertisement - Login to hide

Runways

ID Width Length Bearing (true) Bearing (mag) Surface Threshold Offset Overrun Length
18 98 ft / 30 m 6,895 ft / 2,101 m 180.00° 183.45° Concrete 0 ft / 0 m 0 ft / 0 m
36 98 ft / 30 m 6,895 ft / 2,101 m 0.00° 3.45° Concrete 0 ft / 0 m 0 ft / 0 m

Map

Weather


0- 5 10 15 20 25 30 35+ Temperature / ° C

Clouds and Precipitation
Forecast for 2018-05-25 12:00 UTC. Updated 4 hours ago

Ground ~20,000 ft ~40,000 ft Winds

METAR

SPGM 251500Z 00000KT 9999 FEW040 25/20 Q1019 RMK BIRD HAZARD RWY19 PP000

TAF

SPGM 251100Z 2512/2612 VRB02KT 8000 SCT030 SCT120 TX31/2519Z TN20/2611Z TEMPO 2512/2514 5000 BR SCT020 BKN090 BECMG 2514/2517 35006KT 9999 SCT030 BKN120
Warning: Do not use this data for real-world aviation or navigation. No guarantee of current accuracy is given.